createdAt,value
2019-01-29T00:01:01.542Z,137.70
2019-01-29T00:03:31.382Z,137.00
2019-01-29T00:06:02.702Z,140.40
2019-01-29T00:08:32.527Z,147.40
2019-01-29T00:11:02.351Z,166.30
2019-01-29T00:13:32.255Z,162.57
2019-01-29T00:16:02.133Z,156.50
2019-01-29T00:18:33.062Z,139.57
2019-01-29T00:21:04.253Z,183.57
2019-01-29T00:23:34.110Z,165.27
2019-01-29T00:26:03.976Z,169.00
2019-01-29T00:28:33.834Z,167.67
2019-01-29T00:31:03.742Z,204.13
2019-01-29T00:33:33.574Z,220.00
2019-01-29T00:36:03.455Z,236.50
2019-01-29T00:38:33.258Z,228.60
2019-01-29T00:41:03.062Z,233.43
2019-01-29T00:43:32.897Z,229.67
2019-01-29T00:46:02.702Z,205.20
2019-01-29T00:48:32.598Z,190.00
2019-01-29T00:51:02.428Z,167.37
2019-01-29T00:53:32.254Z,166.73
2019-01-29T00:56:02.116Z,157.90
2019-01-29T00:58:31.978Z,171.53
2019-01-29T01:01:01.899Z,139.97
2019-01-29T01:03:31.753Z,143.60
2019-01-29T01:06:01.566Z,141.77
2019-01-29T01:08:31.462Z,147.53
2019-01-29T01:11:01.299Z,140.63
2019-01-29T01:13:31.154Z,124.10
2019-01-29T01:16:01.081Z,143.73
2019-01-29T01:18:30.995Z,129.93
2019-01-29T01:21:01.912Z,137.83
2019-01-29T01:23:31.834Z,136.13
2019-01-29T01:26:01.682Z,133.23
2019-01-29T01:28:31.507Z,131.73
2019-01-29T01:31:01.389Z,129.07
2019-01-29T01:33:31.166Z,128.97
2019-01-29T01:36:00.955Z,133.20
2019-01-29T01:38:30.798Z,130.17
2019-01-29T01:41:00.683Z,117.73
2019-01-29T01:43:30.485Z,101.93
2019-01-29T01:46:00.286Z,94.07
2019-01-29T01:48:30.178Z,91.70
2019-01-29T01:51:00.010Z,88.40
2019-01-29T01:53:31.416Z,89.63
2019-01-29T01:56:01.245Z,89.43
2019-01-29T01:58:36.067Z,93.53
2019-01-29T02:01:05.995Z,83.47
2019-01-29T02:03:35.998Z,85.57
2019-01-29T02:06:10.370Z,82.70
2019-01-29T02:08:41.458Z,80.57
2019-01-29T02:11:11.266Z,79.97
2019-01-29T02:13:41.075Z,89.63
2019-01-29T02:16:12.573Z,88.90
2019-01-29T02:18:45.264Z,91.77
2019-01-29T02:21:15.326Z,82.93
2019-01-29T02:23:48.192Z,80.70
2019-01-29T02:26:18.022Z,75.83
2019-01-29T02:28:48.182Z,68.87
2019-01-29T02:31:20.610Z,77.40
2019-01-29T02:33:51.999Z,86.57
2019-01-29T02:36:22.053Z,94.70
2019-01-29T02:38:51.889Z,88.00
2019-01-29T02:41:21.833Z,99.27
2019-01-29T02:43:51.966Z,101.67
2019-01-29T02:46:21.882Z,97.03
2019-01-29T02:48:51.731Z,95.67
2019-01-29T02:51:23.318Z,97.87
2019-01-29T02:53:53.255Z,95.93
2019-01-29T02:56:23.048Z,94.93
2019-01-29T02:58:52.881Z,92.37
2019-01-29T03:01:22.882Z,93.63
2019-01-29T03:04:10.491Z,94.57
2019-01-29T03:06:45.863Z,101.47
2019-01-29T03:09:17.014Z,105.43
2019-01-29T03:11:46.859Z,92.33
2019-01-29T03:14:16.674Z,91.20
2019-01-29T03:16:46.561Z,97.20
2019-01-29T03:19:16.374Z,96.87
2019-01-29T03:21:50.826Z,94.37
2019-01-29T03:24:20.783Z,102.50
2019-01-29T03:26:50.575Z,90.47
2019-01-29T03:29:20.398Z,93.30
2019-01-29T03:31:50.234Z,86.80
2019-01-29T03:34:20.830Z,84.87
2019-01-29T03:36:53.630Z,102.77
2019-01-29T03:39:37.637Z,89.73
2019-01-29T03:42:15.249Z,84.20
2019-01-29T03:44:49.916Z,85.23
2019-01-29T03:47:34.401Z,75.43
2019-01-29T03:50:15.132Z,83.93
2019-01-29T03:52:49.735Z,62.93
2019-01-29T03:55:26.934Z,66.23
2019-01-29T03:57:58.728Z,74.70
2019-01-29T04:00:29.690Z,69.47
2019-01-29T04:02:59.515Z,82.90
2019-01-29T04:05:29.326Z,67.53
2019-01-29T04:07:59.179Z,85.63
2019-01-29T04:10:30.234Z,51.97
2019-01-29T04:13:00.075Z,72.47
2019-01-29T04:15:29.866Z,59.10
2019-01-29T04:17:59.850Z,47.20
2019-01-29T04:20:29.706Z,48.23
2019-01-29T04:23:00.538Z,39.97
2019-01-29T04:25:30.370Z,51.07
2019-01-29T04:28:00.198Z,53.03
2019-01-29T04:30:29.994Z,46.87
2019-01-29T04:32:59.767Z,49.90
2019-01-29T04:35:29.618Z,57.83
2019-01-29T04:37:59.446Z,56.07
2019-01-29T04:40:29.415Z,61.13
2019-01-29T04:42:59.213Z,55.70
2019-01-29T04:45:29.102Z,57.93
2019-01-29T04:47:58.899Z,51.57
2019-01-29T04:50:29.903Z,59.10
2019-01-29T04:52:59.674Z,45.17
2019-01-29T04:55:29.492Z,46.63
2019-01-29T04:57:59.315Z,49.93
2019-01-29T05:00:29.144Z,43.40
2019-01-29T05:02:58.990Z,48.33
2019-01-29T05:05:28.790Z,52.10
2019-01-29T05:07:58.660Z,51.63
2019-01-29T05:10:28.539Z,56.27
2019-01-29T05:12:58.966Z,58.17
2019-01-29T05:15:28.815Z,47.10
2019-01-29T05:17:58.629Z,52.50
2019-01-29T05:20:29.972Z,47.37
2019-01-29T05:22:59.795Z,49.53
2019-01-29T05:25:29.818Z,38.90
2019-01-29T05:27:59.718Z,39.50
2019-01-29T05:30:29.590Z,41.40
2019-01-29T05:33:00.736Z,37.53
2019-01-29T05:35:30.644Z,33.07
2019-01-29T05:38:00.518Z,37.90
2019-01-29T05:40:30.308Z,37.90
2019-01-29T05:43:00.212Z,33.83
2019-01-29T05:45:30.029Z,31.30
2019-01-29T05:47:59.850Z,38.13
2019-01-29T05:50:29.700Z,39.13
2019-01-29T05:52:59.528Z,38.47
2019-01-29T05:55:29.380Z,44.90
2019-01-29T05:57:59.272Z,39.57
2019-01-29T06:00:30.717Z,48.07
2019-01-29T06:03:00.569Z,49.17
2019-01-29T06:05:30.616Z,47.13
2019-01-29T06:08:01.451Z,50.73
2019-01-29T06:10:31.408Z,44.97
2019-01-29T06:13:01.363Z,46.13
2019-01-29T06:15:31.334Z,46.97
2019-01-29T06:18:01.163Z,43.83
2019-01-29T06:20:32.037Z,41.60
2019-01-29T06:23:01.877Z,45.53
2019-01-29T06:25:31.727Z,39.13
2019-01-29T06:28:01.544Z,34.93
2019-01-29T06:30:31.397Z,32.33
2019-01-29T06:33:01.291Z,36.97
2019-01-29T06:35:33.037Z,41.03
2019-01-29T06:38:02.985Z,44.37
2019-01-29T06:40:32.949Z,42.27
2019-01-29T06:43:02.820Z,37.93
2019-01-29T06:45:32.688Z,37.23
2019-01-29T06:48:02.564Z,40.70
2019-01-29T06:50:32.779Z,38.30
2019-01-29T06:53:03.059Z,42.67
2019-01-29T06:55:32.938Z,36.40
2019-01-29T06:58:02.779Z,46.57
2019-01-29T07:00:33.698Z,41.37
2019-01-29T07:03:03.675Z,41.30
2019-01-29T07:05:33.580Z,41.00
2019-01-29T07:08:03.384Z,38.73
2019-01-29T07:10:33.260Z,41.93
2019-01-29T07:13:04.766Z,33.90
2019-01-29T07:15:52.767Z,35.70
2019-01-29T07:18:34.307Z,40.03
2019-01-29T07:21:06.598Z,35.63
2019-01-29T07:23:38.467Z,33.77
2019-01-29T07:26:08.308Z,37.97
2019-01-29T07:28:38.216Z,35.67
2019-01-29T07:31:08.188Z,40.23
2019-01-29T07:33:38.081Z,40.57
2019-01-29T07:36:07.948Z,46.07
2019-01-29T07:38:37.831Z,39.87
2019-01-29T07:41:07.747Z,42.03
2019-01-29T07:43:37.616Z,34.63
2019-01-29T07:46:07.493Z,34.80
2019-01-29T07:48:37.335Z,40.43
2019-01-29T07:51:07.223Z,35.87
2019-01-29T07:53:37.092Z,35.23
2019-01-29T07:56:07.213Z,36.47
2019-01-29T07:58:37.431Z,41.20
2019-01-29T08:01:07.539Z,49.37
2019-01-29T08:03:38.332Z,50.30
2019-01-29T08:06:08.758Z,62.47
2019-01-29T08:08:38.997Z,62.13
2019-01-29T08:11:09.067Z,49.70
2019-01-29T08:13:39.257Z,51.67
2019-01-29T08:16:09.495Z,58.17
2019-01-29T08:18:39.443Z,59.57
2019-01-29T08:21:09.386Z,47.13
2019-01-29T08:23:39.507Z,42.77
2019-01-29T08:26:09.762Z,52.20
2019-01-29T08:28:39.846Z,54.30
2019-01-29T08:31:09.964Z,71.17
2019-01-29T08:33:39.883Z,67.07
2019-01-29T08:36:09.972Z,76.43
2019-01-29T08:38:41.177Z,74.83
2019-01-29T08:41:11.294Z,65.57
2019-01-29T08:43:41.476Z,62.17
2019-01-29T08:46:11.631Z,60.03
2019-01-29T08:48:41.718Z,65.07
2019-01-29T08:51:11.729Z,56.30
2019-01-29T08:53:41.871Z,56.80
2019-01-29T08:56:12.114Z,58.73
2019-01-29T08:58:42.007Z,55.77
2019-01-29T09:01:12.140Z,65.13
2019-01-29T09:03:42.162Z,59.93
2019-01-29T09:06:12.240Z,59.13
2019-01-29T09:08:42.216Z,58.97
2019-01-29T09:11:12.367Z,59.17
2019-01-29T09:13:42.500Z,60.87
2019-01-29T09:16:14.213Z,61.27
2019-01-29T09:18:44.681Z,57.27
2019-01-29T09:21:16.434Z,62.53
2019-01-29T09:23:46.365Z,64.10
2019-01-29T09:26:16.226Z,64.30
2019-01-29T09:28:51.535Z,64.97
2019-01-29T09:31:21.535Z,63.20
2019-01-29T09:33:51.447Z,72.57
2019-01-29T09:36:23.528Z,64.30
2019-01-29T09:38:53.442Z,64.80
2019-01-29T09:41:23.470Z,70.63
2019-01-29T09:43:54.119Z,79.37
2019-01-29T09:46:24.120Z,73.47
2019-01-29T09:48:55.470Z,68.47
2019-01-29T09:51:25.559Z,66.13
2019-01-29T09:53:55.520Z,63.63
2019-01-29T09:56:25.720Z,75.73
2019-01-29T09:58:55.839Z,71.27
2019-01-29T10:01:26.159Z,68.67
2019-01-29T10:03:56.159Z,62.67
2019-01-29T10:06:26.159Z,59.83
2019-01-29T10:08:56.120Z,64.10
2019-01-29T10:11:25.990Z,57.93
2019-01-29T10:13:57.519Z,45.67
2019-01-29T10:16:27.737Z,49.13
2019-01-29T10:18:57.679Z,40.03
2019-01-29T10:21:27.639Z,43.00
2019-01-29T10:23:57.759Z,38.73
2019-01-29T10:26:27.759Z,35.17
2019-01-29T10:28:57.961Z,39.27
2019-01-29T10:31:27.945Z,38.23
2019-01-29T10:33:57.867Z,36.00
2019-01-29T10:36:27.986Z,34.13
2019-01-29T10:38:58.060Z,37.27
2019-01-29T10:41:28.085Z,32.93
2019-01-29T10:43:58.105Z,35.23
2019-01-29T10:46:28.300Z,33.47
2019-01-29T10:48:58.262Z,31.77
2019-01-29T10:51:28.225Z,34.50
2019-01-29T10:53:58.263Z,37.53
2019-01-29T10:56:28.262Z,34.93
2019-01-29T10:59:01.105Z,36.87
2019-01-29T11:01:32.591Z,35.40
2019-01-29T11:04:02.822Z,33.03
2019-01-29T11:06:32.884Z,39.27
2019-01-29T11:09:04.230Z,35.13
2019-01-29T11:11:35.010Z,33.07
2019-01-29T11:14:05.434Z,40.10
2019-01-29T11:16:35.670Z,39.30
2019-01-29T11:19:06.383Z,40.87
2019-01-29T11:21:36.602Z,40.40
2019-01-29T11:24:07.110Z,44.87
2019-01-29T11:26:37.176Z,38.43
2019-01-29T11:29:07.270Z,40.87
2019-01-29T11:31:37.236Z,45.57
2019-01-29T11:34:07.256Z,44.83
2019-01-29T11:36:37.386Z,45.67
2019-01-29T11:39:09.417Z,44.87
2019-01-29T11:41:39.598Z,47.53
2019-01-29T11:44:09.670Z,50.50
2019-01-29T11:46:39.771Z,48.00
2019-01-29T11:49:09.703Z,47.70
2019-01-29T11:51:39.754Z,50.23
2019-01-29T11:54:09.674Z,51.47
2019-01-29T11:56:40.274Z,56.87
2019-01-29T11:59:10.194Z,53.03
2019-01-29T12:01:40.074Z,56.93
2019-01-29T12:04:10.024Z,52.87
2019-01-29T12:06:40.534Z,56.37
2019-01-29T12:09:11.039Z,52.37
2019-01-29T12:11:41.244Z,60.10
2019-01-29T12:14:11.474Z,52.90
2019-01-29T12:16:41.516Z,51.83
2019-01-29T12:19:11.480Z,61.40
2019-01-29T12:21:41.434Z,49.77
2019-01-29T12:24:11.515Z,50.60
2019-01-29T12:26:42.463Z,53.83
2019-01-29T12:29:18.162Z,48.93
2019-01-29T12:31:48.859Z,47.90
2019-01-29T12:34:19.384Z,51.50
2019-01-29T12:36:50.274Z,48.23
2019-01-29T12:39:21.076Z,50.37
2019-01-29T12:41:51.394Z,47.63
2019-01-29T12:44:21.394Z,43.23
2019-01-29T12:46:51.394Z,43.63
2019-01-29T12:49:21.395Z,44.70
2019-01-29T12:51:53.003Z,44.77
2019-01-29T12:54:24.876Z,40.87
2019-01-29T12:56:54.794Z,42.67
2019-01-29T12:59:25.435Z,40.37
2019-01-29T13:02:17.026Z,38.17
2019-01-29T13:04:51.754Z,37.17
2019-01-29T13:07:21.755Z,38.80
2019-01-29T13:09:51.835Z,35.40
2019-01-29T13:12:21.795Z,30.77
2019-01-29T13:14:53.084Z,37.57
2019-01-29T13:17:23.154Z,36.63
2019-01-29T13:19:54.794Z,35.03
2019-01-29T13:22:24.755Z,35.27
2019-01-29T13:24:54.703Z,37.97
2019-01-29T13:27:24.914Z,36.53
2019-01-29T13:29:54.891Z,31.40
2019-01-29T13:32:24.775Z,34.20
2019-01-29T13:34:54.804Z,30.03
2019-01-29T13:37:24.725Z,35.50
2019-01-29T13:39:55.092Z,31.40
2019-01-29T13:42:26.393Z,26.97
2019-01-29T13:45:03.016Z,31.87
2019-01-29T13:47:33.008Z,30.57
2019-01-29T13:50:04.285Z,35.70
2019-01-29T13:52:34.565Z,36.50
2019-01-29T13:55:06.754Z,42.90
2019-01-29T13:57:37.004Z,37.57
2019-01-29T14:00:10.005Z,36.93
2019-01-29T14:02:39.925Z,36.00
2019-01-29T14:05:09.885Z,42.07
2019-01-29T14:07:39.845Z,40.30
2019-01-29T14:10:12.724Z,41.27
2019-01-29T14:12:42.717Z,42.53
2019-01-29T14:15:23.048Z,46.17
2019-01-29T14:17:53.309Z,38.73
2019-01-29T14:20:23.404Z,44.67
2019-01-29T14:22:53.365Z,50.70
2019-01-29T14:25:23.484Z,44.07
2019-01-29T14:27:54.993Z,51.57
2019-01-29T14:30:32.825Z,47.73
2019-01-29T14:33:02.926Z,49.37
2019-01-29T14:35:32.964Z,44.30
2019-01-29T14:38:20.713Z,47.20
2019-01-29T14:40:50.765Z,47.27
2019-01-29T14:43:24.845Z,47.47
2019-01-29T14:45:54.844Z,49.57
2019-01-29T14:48:24.699Z,51.07
2019-01-29T14:50:54.688Z,49.07
2019-01-29T14:53:26.230Z,49.90
2019-01-29T14:55:56.136Z,52.07
2019-01-29T14:58:27.758Z,52.50
2019-01-29T15:00:58.068Z,54.53
2019-01-29T15:03:28.165Z,53.83
2019-01-29T15:05:58.154Z,51.77
2019-01-29T15:08:28.069Z,49.77
2019-01-29T15:10:58.026Z,46.27
2019-01-29T15:13:28.444Z,48.93
2019-01-29T15:16:08.572Z,50.10
2019-01-29T15:18:40.084Z,55.40
2019-01-29T15:21:11.653Z,57.57
2019-01-29T15:23:41.845Z,56.87
2019-01-29T15:26:11.754Z,52.40
2019-01-29T15:28:41.873Z,51.13
2019-01-29T15:31:11.653Z,49.63
2019-01-29T15:33:41.569Z,51.17
2019-01-29T15:36:11.764Z,44.57
2019-01-29T15:38:41.604Z,44.40
2019-01-29T15:41:11.475Z,42.93
2019-01-29T15:43:41.405Z,44.83
2019-01-29T15:46:11.544Z,42.37
2019-01-29T15:48:43.288Z,43.20
2019-01-29T15:51:14.208Z,46.40
2019-01-29T15:53:45.272Z,41.50
2019-01-29T15:56:15.493Z,45.67
2019-01-29T15:58:45.609Z,40.63
2019-01-29T16:01:15.740Z,45.80
2019-01-29T16:03:45.605Z,41.60
2019-01-29T16:06:15.396Z,47.17
2019-01-29T16:08:45.250Z,44.40
2019-01-29T16:11:15.604Z,45.07
2019-01-29T16:13:45.450Z,46.30
2019-01-29T16:16:15.404Z,47.67
2019-01-29T16:18:45.397Z,46.50
2019-01-29T16:21:15.406Z,47.30
2019-01-29T16:23:45.584Z,45.97
2019-01-29T16:26:17.108Z,52.50
2019-01-29T16:28:46.973Z,53.30
2019-01-29T16:31:20.283Z,52.93
2019-01-29T16:33:50.269Z,54.80
2019-01-29T16:36:21.021Z,52.33
2019-01-29T16:38:50.957Z,49.47
2019-01-29T16:41:20.877Z,48.67
2019-01-29T16:43:50.799Z,54.60
2019-01-29T16:46:21.044Z,48.90
2019-01-29T16:48:57.605Z,53.63
2019-01-29T16:51:27.604Z,53.40
2019-01-29T16:53:57.458Z,56.10
2019-01-29T16:56:27.348Z,49.33
2019-01-29T16:58:57.713Z,48.33
2019-01-29T17:01:27.885Z,46.93
2019-01-29T17:03:57.804Z,50.57
2019-01-29T17:06:29.133Z,50.73
2019-01-29T17:09:00.997Z,54.67
2019-01-29T17:11:32.611Z,52.60
2019-01-29T17:14:02.585Z,55.73
2019-01-29T17:16:32.485Z,55.10
2019-01-29T17:19:12.924Z,56.30
2019-01-29T17:21:43.116Z,53.63
2019-01-29T17:24:12.961Z,52.23
2019-01-29T17:26:42.925Z,48.47
2019-01-29T17:29:12.885Z,52.57
2019-01-29T17:31:42.766Z,52.17
2019-01-29T17:34:13.346Z,52.70
2019-01-29T17:36:45.029Z,51.90
2019-01-29T17:39:16.109Z,49.40
2019-01-29T17:41:46.190Z,54.73
2019-01-29T17:44:16.108Z,52.27
2019-01-29T17:46:46.037Z,60.73
2019-01-29T17:49:15.896Z,75.37
2019-01-29T17:51:45.944Z,70.80
2019-01-29T17:54:29.849Z,77.03
2019-01-29T17:57:02.133Z,75.93
2019-01-29T17:59:34.053Z,80.77
2019-01-29T18:02:08.067Z,73.97
2019-01-29T18:04:43.522Z,70.53
2019-01-29T18:07:13.465Z,59.63
2019-01-29T18:09:43.553Z,53.40
2019-01-29T18:12:14.277Z,49.73
2019-01-29T18:14:45.930Z,51.83
2019-01-29T18:17:17.196Z,52.00
2019-01-29T18:19:47.818Z,42.40
2019-01-29T18:22:17.778Z,45.33
2019-01-29T18:24:48.777Z,50.10
2019-01-29T18:27:19.364Z,45.37
2019-01-29T18:29:49.490Z,38.13
2019-01-29T18:32:19.415Z,42.40
2019-01-29T18:34:49.370Z,40.67
2019-01-29T18:37:19.225Z,34.73
2019-01-29T18:39:49.164Z,37.83
2019-01-29T18:42:19.321Z,33.93
2019-01-29T18:44:49.581Z,36.13
2019-01-29T18:47:19.905Z,35.57
2019-01-29T18:49:50.181Z,47.30
2019-01-29T18:52:20.154Z,39.70
2019-01-29T18:54:50.577Z,39.57
2019-01-29T18:57:21.591Z,37.10
2019-01-29T18:59:51.578Z,33.43
2019-01-29T19:02:21.621Z,33.80
2019-01-29T19:04:51.702Z,39.23
2019-01-29T19:07:21.562Z,42.80
2019-01-29T19:09:51.726Z,41.33
2019-01-29T19:12:22.358Z,42.00
2019-01-29T19:14:52.665Z,44.20
2019-01-29T19:17:24.227Z,47.33
2019-01-29T19:19:54.286Z,42.20
2019-01-29T19:22:24.626Z,46.83
2019-01-29T19:24:54.590Z,45.97
2019-01-29T19:27:24.418Z,47.27
2019-01-29T19:29:54.265Z,44.43
2019-01-29T19:32:24.197Z,52.33
2019-01-29T19:34:54.745Z,53.40
2019-01-29T19:37:25.385Z,50.23
2019-01-29T19:39:57.069Z,47.80
2019-01-29T19:42:27.876Z,44.73
2019-01-29T19:44:58.379Z,49.50
2019-01-29T19:47:29.870Z,54.37
2019-01-29T19:50:00.294Z,42.67
2019-01-29T19:52:31.158Z,47.87
2019-01-29T19:55:02.291Z,43.77
2019-01-29T19:57:32.461Z,42.73
2019-01-29T20:00:02.510Z,45.70
2019-01-29T20:02:33.958Z,46.17
2019-01-29T20:05:08.534Z,55.70
2019-01-29T20:07:40.303Z,47.43
2019-01-29T20:10:14.798Z,54.17
2019-01-29T20:13:02.490Z,50.57
2019-01-29T20:15:33.379Z,51.70
2019-01-29T20:18:05.682Z,52.60
2019-01-29T20:20:38.814Z,57.13
2019-01-29T20:23:11.161Z,47.73
2019-01-29T20:25:41.754Z,54.00
2019-01-29T20:28:19.202Z,53.53
2019-01-29T20:30:51.857Z,46.40
2019-01-29T20:33:26.666Z,52.07
2019-01-29T20:35:57.202Z,49.43
2019-01-29T20:38:34.914Z,47.67
2019-01-29T20:41:00.582Z,48.53
2019-01-29T20:43:33.942Z,51.67
2019-01-29T20:46:05.272Z,50.73
2019-01-29T20:48:38.037Z,50.23
2019-01-29T20:51:09.966Z,51.07
2019-01-29T20:53:39.915Z,48.30
2019-01-29T20:56:12.935Z,48.67
2019-01-29T20:58:52.319Z,46.10
2019-01-29T21:01:16.363Z,49.43
2019-01-29T21:03:46.946Z,47.10
2019-01-29T21:06:19.325Z,46.03
2019-01-29T21:08:51.070Z,46.90
2019-01-29T21:11:22.022Z,45.40
2019-01-29T21:13:52.118Z,48.93
2019-01-29T21:16:24.183Z,52.43
2019-01-29T21:18:56.003Z,43.77
2019-01-29T21:21:26.629Z,47.27
2019-01-29T21:23:57.330Z,46.00
2019-01-29T21:26:27.530Z,52.77
2019-01-29T21:29:03.138Z,50.37
2019-01-29T21:31:28.992Z,49.40
2019-01-29T21:33:59.521Z,55.50
2019-01-29T21:36:30.462Z,50.10
2019-01-29T21:39:01.504Z,49.30
2019-01-29T21:41:33.022Z,49.10
2019-01-29T21:44:04.042Z,53.37
2019-01-29T21:46:46.027Z,54.43
2019-01-29T21:49:21.461Z,56.07
2019-01-29T21:52:16.833Z,55.63
2019-01-29T21:55:17.354Z,57.40
2019-01-29T21:57:49.985Z,59.30
2019-01-29T22:00:23.356Z,57.70
2019-01-29T22:02:55.443Z,58.70
2019-01-29T22:05:27.008Z,64.40
2019-01-29T22:07:59.186Z,74.30
2019-01-29T22:10:29.576Z,64.57
2019-01-29T22:13:05.358Z,74.57
2019-01-29T22:15:37.515Z,68.20
2019-01-29T22:18:10.152Z,69.47
2019-01-29T22:20:42.550Z,76.73
2019-01-29T22:23:14.194Z,74.47
2019-01-29T22:25:46.294Z,73.93
2019-01-29T22:28:16.832Z,75.30
2019-01-29T22:30:46.779Z,81.97
2019-01-29T22:33:17.067Z,79.73
2019-01-29T22:35:49.649Z,78.77
2019-01-29T22:38:22.094Z,80.30
2019-01-29T22:40:52.088Z,85.17
2019-01-29T22:43:22.784Z,80.43
2019-01-29T22:45:53.514Z,83.63
2019-01-29T22:48:23.856Z,81.73
2019-01-29T22:50:53.953Z,82.30
2019-01-29T22:53:25.830Z,80.10
2019-01-29T22:55:55.751Z,85.03
2019-01-29T22:58:27.317Z,73.93
2019-01-29T23:01:00.783Z,83.30
2019-01-29T23:03:37.801Z,63.90
2019-01-29T23:06:27.014Z,69.47
2019-01-29T23:08:57.071Z,44.30
2019-01-29T23:11:27.112Z,44.57
2019-01-29T23:13:57.182Z,34.30
2019-01-29T23:16:27.332Z,37.27
2019-01-29T23:18:58.852Z,35.97
2019-01-29T23:21:30.478Z,34.33
2019-01-29T23:24:01.456Z,34.20
2019-01-29T23:26:31.560Z,28.00
2019-01-29T23:29:02.237Z,30.53
2019-01-29T23:31:33.223Z,28.93
2019-01-29T23:34:03.655Z,29.73
2019-01-29T23:36:33.483Z,32.77
2019-01-29T23:39:04.748Z,27.90
2019-01-29T23:41:37.070Z,29.27
2019-01-29T23:44:08.776Z,35.40
2019-01-29T23:46:39.927Z,32.93
2019-01-29T23:49:10.448Z,32.50
2019-01-29T23:51:40.991Z,41.30
2019-01-29T23:54:11.371Z,39.80
2019-01-29T23:56:44.307Z,30.67
2019-01-29T23:59:15.442Z,27.57
